Humidity-temperature Sensor

Selected Measurement Type: Air Temperature

 
Air Temperature [°C]     6 entries per hour
Showing data from 4/18/2015 (00:00:00 Z) to 4/15/2015 (22:10:00 Z)
Previous Next [ Day | 3-Days | 7-Days ]
First Last
Prev [ Day | 3-Days | 7-Days ] Next
First Last

Start Time:     :
End Time:     :     
Time (in GMT) :00 :50 :40 :30 :20 :10
Previous Next [ Day | 3-Days | 7-Days ]
First Last
Prev [ Day | 3-Days | 7-Days ] Next
First Last


123 => good data
MM => data is determined as missing
-- => data not received/configured
Back to Top Back to Top
4/18/2015 00:00 to 23:10 28.42 28.40 28.49 28.62 28.60 28.57
4/17/2015 23:00 to 22:10 28.66 28.70 28.80 28.82 28.84 28.81
4/17/2015 22:00 to 21:10 28.77 28.77 28.69 28.68 28.66 28.57
4/17/2015 21:00 to 20:10 28.53 28.54 28.58 28.58 28.53 28.52
4/17/2015 20:00 to 19:10 28.50 28.49 28.51 28.40 28.41 28.35
4/17/2015 19:00 to 18:10 28.36 28.30 28.34 28.28 28.25 28.23
4/17/2015 18:00 to 17:10 28.24 28.26 28.32 28.33 28.33 28.37
4/17/2015 17:00 to 16:10 28.38 28.42 28.42 28.39 28.42 28.43
4/17/2015 16:00 to 15:10 28.26 28.12 28.06 27.95 27.91 27.94
4/17/2015 15:00 to 14:10 27.87 27.67 27.57 27.67 27.52 27.38
4/17/2015 14:00 to 13:10 27.23 27.13 28.05 28.01 28.03 28.02
4/17/2015 13:00 to 12:10 28.02 27.99 27.97 28.01 27.98 27.96
4/17/2015 12:00 to 11:10 27.97 27.97 27.99 27.99 28.02 28.02
4/17/2015 11:00 to 10:10 27.94 27.93 27.95 27.97 27.96 27.97
4/17/2015 10:00 to 9:10 28.00 28.07 28.06 28.04 28.03 28.04
4/17/2015 09:00 to 8:10 28.03 27.99 27.95 27.88 27.99 28.13
4/17/2015 08:00 to 7:10 28.14 28.19 28.19 28.20 28.20 28.23
4/17/2015 07:00 to 6:10 28.21 28.24 28.23 28.31 28.30 28.29
4/17/2015 06:00 to 5:10 28.30 28.26 28.10 27.58 28.26 28.39
4/17/2015 05:00 to 4:10 28.39 28.41 28.46 28.43 28.41 28.33
4/17/2015 04:00 to 3:10 28.07 27.90 27.79 27.80 27.83 27.70
4/17/2015 03:00 to 2:10 27.72 27.64 27.57 27.46 27.43 27.24
4/17/2015 02:00 to 1:10 27.03 26.78 26.77 26.78 26.66 27.01
4/17/2015 01:00 to 0:10 26.85 27.00 26.76 26.35 25.95 25.70
4/17/2015 00:00 to 23:10 25.52 25.76 26.10 26.13 26.00 26.03
4/16/2015 23:00 to 22:10 26.33 26.36 27.28 27.60 26.83 28.06
4/16/2015 22:00 to 21:10 28.88 28.95 28.95 28.94 28.81 28.87
4/16/2015 21:00 to 20:10 29.28 29.41 29.43 29.15 29.16 28.97
4/16/2015 20:00 to 19:10 28.86 28.80 28.80 28.81 28.81 28.71
4/16/2015 19:00 to 18:10 28.84 28.84 28.85 28.89 28.95 28.95
4/16/2015 18:00 to 17:10 28.90 28.86 28.81 28.87 28.90 28.84
4/16/2015 17:00 to 16:10 28.81 28.81 28.78 28.75 28.70 28.67
4/16/2015 16:00 to 15:10 28.66 28.63 28.66 28.70 28.62 28.57
4/16/2015 15:00 to 14:10 28.71 28.83 28.71 28.73 28.69 28.66
4/16/2015 14:00 to 13:10 28.67 28.65 28.52 28.45 28.45 28.41
4/16/2015 13:00 to 12:10 28.24 28.21 28.26 28.20 28.21 28.23
4/16/2015 12:00 to 11:10 28.24 28.26 28.31 28.30 28.23 28.28
4/16/2015 11:00 to 10:10 28.31 28.34 28.30 28.38 28.34 28.37
4/16/2015 10:00 to 9:10 28.41 28.46 28.43 28.38 28.38 28.42
4/16/2015 09:00 to 8:10 28.41 28.46 28.47 28.48 28.49 28.51
4/16/2015 08:00 to 7:10 28.54 28.54 28.59 28.60 28.63 28.65
4/16/2015 07:00 to 6:10 28.66 28.68 28.70 28.72 28.73 28.73
4/16/2015 06:00 to 5:10 28.77 28.80 28.76 28.79 28.85 28.80
4/16/2015 05:00 to 4:10 28.86 28.87 -- -- -- --
4/16/2015 04:00 to 3:10 28.97 28.94 28.98 28.97 29.00 29.00
4/16/2015 03:00 to 2:10 29.00 28.98 29.00 29.01 29.01 29.03
4/16/2015 02:00 to 1:10 29.03 29.07 29.04 29.01 29.00 29.00
4/16/2015 01:00 to 0:10 29.05 29.05 29.06 29.13 29.16 29.20
4/16/2015 00:00 to 23:10 29.28 29.17 29.31 29.39 29.42 29.39
4/15/2015 23:00 to 22:10 29.27 29.43 29.55 29.63 29.77 29.70